Time;durP1;ratioP1;P1;durP2;ratioP2;P2;SDS_P1;SDS_P2;PMS_P1;PMS_P2;Temp;Humidity;BMP_temperature;BMP_pressure;BME280_temperature;BME280_humidity;BME280_pressure;Samples;Min_cycle;Max_cycle;Signal;HPM_P1;HPM_P2
2021/11/05 00:07:13;;;;;;;;;;;8.00;86.30;;;;;;20824611;28;76908;-72
2021/11/05 00:17:16;;;;;;;;;;;7.90;84.80;;;;;;20823902;28;76282;-73
2021/11/05 00:27:18;;;;;;;;;;;7.90;84.90;;;;;;20822192;28;75782;-71
2021/11/05 00:37:20;;;;;;;;;;;7.90;86.00;;;;;;20822348;28;76971;-72
2021/11/05 00:47:22;;;;;;;;;;;7.80;86.10;;;;;;20823282;28;74560;-71
2021/11/05 00:57:24;;;;;;;;;;;7.80;86.10;;;;;;20821656;28;76873;-73
2021/11/05 01:07:25;;;;;;;;;;;8.00;84.80;;;;;;20832810;28;75757;-72
2021/11/05 01:17:27;;;;;;;;;;;7.70;82.40;;;;;;20833452;28;74828;-71
2021/11/05 01:27:29;;;;;;;;;;;7.40;84.10;;;;;;20833742;28;75810;-71
2021/11/05 01:37:33;;;;;;;;;;;7.30;85.60;;;;;;20832422;28;75317;-71
2021/11/05 01:47:37;;;;;;;;;;;7.10;86.20;;;;;;20832461;28;75521;-71
2021/11/05 01:57:40;;;;;;;;;;;6.90;86.30;;;;;;20830268;28;77059;-71
2021/11/05 02:07:44;;;;;;;;;;;7.00;86.60;;;;;;20830361;28;76699;-72
2021/11/05 02:17:47;;;;;;;;;;;7.00;85.90;;;;;;20829199;28;76780;-71
2021/11/05 02:27:52;;;;;;;;;;;7.10;86.40;;;;;;20829188;28;75665;-71
2021/11/05 02:37:54;;;;;;;;;;;7.00;87.00;;;;;;20826540;28;75672;-72
2021/11/05 02:47:56;;;;;;;;;;;6.90;87.00;;;;;;20824345;28;74789;-73
2021/11/05 02:58:01;;;;;;;;;;;6.80;87.50;;;;;;20822040;28;76832;-72
2021/11/05 03:08:03;;;;;;;;;;;6.80;87.60;;;;;;20818484;28;76745;-72
2021/11/05 03:18:06;;;;;;;;;;;6.60;87.60;;;;;;20816603;28;76588;-73
2021/11/05 03:28:10;;;;;;;;;;;6.60;87.90;;;;;;20823038;28;75003;-70
2021/11/05 03:38:13;;;;;;;;;;;6.60;87.70;;;;;;20824724;28;75750;-69
2021/11/05 03:48:16;;;;;;;;;;;6.40;87.80;;;;;;20824137;28;75445;-70
2021/11/05 03:58:18;;;;;;;;;;;6.00;87.90;;;;;;20823003;28;75512;-73
2021/11/05 04:08:20;;;;;;;;;;;5.80;87.60;;;;;;20823435;28;76746;-69
2021/11/05 04:18:23;;;;;;;;;;;5.80;87.90;;;;;;20823170;28;74712;-70
2021/11/05 04:28:29;;;;;;;;;;;5.80;88.20;;;;;;20821741;28;75417;-69
2021/11/05 04:38:31;;;;;;;;;;;5.80;88.20;;;;;;20828169;28;76782;-71
2021/11/05 04:48:42;;;;;;;;;;;5.70;88.40;;;;;;20834685;28;75637;-71
2021/11/05 04:58:45;;;;;;;;;;;5.70;88.50;;;;;;20836338;28;75619;-72
2021/11/05 05:08:48;;;;;;;;;;;5.80;88.60;;;;;;20883491;27;75292;-72
2021/11/05 05:18:50;;;;;;;;;;;5.70;88.60;;;;;;20917229;27;74835;-71
2021/11/05 05:28:52;;;;;;;;;;;5.70;87.90;;;;;;20914655;28;75968;-72
2021/11/05 05:38:54;;;;;;;;;;;5.60;87.90;;;;;;20907073;27;75766;-74
2021/11/05 05:48:56;;;;;;;;;;;5.60;88.10;;;;;;20909769;27;75865;-74
2021/11/05 05:58:59;;;;;;;;;;;5.70;88.50;;;;;;20913819;28;75850;-74
2021/11/05 06:09:01;;;;;;;;;;;5.50;87.90;;;;;;20914203;28;74560;-72
2021/11/05 06:19:04;;;;;;;;;;;5.50;88.10;;;;;;20914351;28;77095;-72
2021/11/05 06:29:06;;;;;;;;;;;5.40;88.20;;;;;;20914050;27;75654;-73
2021/11/05 06:39:08;;;;;;;;;;;;;;;;;;20894480;28;75652;-74
2021/11/05 06:49:10;;;;;;;;;;;5.30;88.60;;;;;;20896480;28;75859;-69
2021/11/05 06:59:12;;;;;;;;;;;5.40;88.50;;;;;;20900017;27;75707;-64
2021/11/05 07:09:17;;;;;;;;;;;5.60;88.60;;;;;;20900954;27;75677;-67
2021/11/05 07:19:24;;;;;;;;;;;5.80;88.10;;;;;;20931943;27;76817;-68
2021/11/05 07:29:27;;;;;;;;;;;6.00;87.80;;;;;;20899191;27;76027;-64
2021/11/05 07:39:29;;;;;;;;;;;6.30;87.00;;;;;;20896772;27;76861;-65
2021/11/05 07:49:34;;;;;;;;;;;6.80;87.80;;;;;;20896934;28;76981;-76
2021/11/05 07:59:37;;;;;;;;;;;7.20;86.90;;;;;;20889926;27;77503;-71
2021/11/05 08:09:40;;;;;;;;;;;7.50;83.90;;;;;;20896380;27;76041;-75
2021/11/05 08:19:42;;;;;;;;;;;8.10;85.50;;;;;;20896353;27;76263;-74
2021/11/05 08:29:44;;;;;;;;;;;8.80;84.70;;;;;;20896496;27;77073;-70
2021/11/05 08:39:45;;;;;;;;;;;9.00;83.60;;;;;;20893232;27;75704;-75
2021/11/05 08:49:53;;;;;;;;;;;10.00;82.10;;;;;;20894314;27;75910;-67
2021/11/05 08:59:55;;;;;;;;;;;10.60;80.90;;;;;;20891059;27;76869;-72
2021/11/05 09:09:57;;;;;;;;;;;10.40;80.50;;;;;;20891288;28;76782;-72
2021/11/05 09:20:01;;;;;;;;;;;10.80;81.50;;;;;;20893825;27;76492;-76
2021/11/05 09:30:07;;;;;;;;;;;11.80;78.20;;;;;;20907945;27;76749;-74
2021/11/05 09:40:15;;;;;;;;;;;15.90;70.10;;;;;;20906900;27;76380;-62
2021/11/05 09:50:19;;;;;;;;;;;15.90;64.90;;;;;;20900586;28;75724;-67
2021/11/05 10:00:22;;;;;;;;;;;13.70;72.30;;;;;;20901516;27;76861;-70
2021/11/05 10:10:31;;;;;;;;;;;14.10;74.00;;;;;;20904309;27;75827;-66
2021/11/05 10:20:34;;;;;;;;;;;24.80;52.00;;;;;;20903699;27;74897;-72
2021/11/05 10:30:39;;;;;;;;;;;29.50;40.00;;;;;;20901463;28;75768;-69
2021/11/05 10:40:44;;;;;;;;;;;32.20;36.20;;;;;;20897407;27;77054;-71
2021/11/05 10:50:47;;;;;;;;;;;32.00;38.20;;;;;;20901829;27;76897;-71
2021/11/05 11:00:53;;;;;;;;;;;28.50;37.10;;;;;;20897972;27;76914;-65
2021/11/05 11:10:57;;;;;;;;;;;31.70;41.90;;;;;;20895610;28;76310;-66
2021/11/05 11:20:59;;;;;;;;;;;34.70;38.30;;;;;;20895627;27;75781;-62
2021/11/05 11:31:01;;;;;;;;;;;36.70;34.20;;;;;;20890032;27;76234;-66
2021/11/05 11:41:06;;;;;;;;;;;35.80;33.50;;;;;;20894661;28;77592;-65
2021/11/05 11:51:18;;;;;;;;;;;35.00;34.90;;;;;;20895692;27;75865;-68
2021/11/05 12:01:21;;;;;;;;;;;32.70;40.90;;;;;;20895022;28;76660;-60
2021/11/05 12:11:25;;;;;;;;;;;33.70;44.20;;;;;;20893447;28;75025;-61
2021/11/05 12:21:28;;;;;;;;;;;29.40;53.40;;;;;;20892673;27;76047;-64
2021/11/05 12:31:30;;;;;;;;;;;29.00;48.80;;;;;;20893729;28;75756;-65
2021/11/05 12:41:53;;;;;;;;;;;31.50;51.70;;;;;;20895287;27;76755;-62
2021/11/05 12:51:55;;;;;;;;;;;29.00;54.80;;;;;;20890136;28;76077;-74
2021/11/05 13:02:02;;;;;;;;;;;22.30;63.70;;;;;;20902537;27;76549;-69
2021/11/05 13:12:05;;;;;;;;;;;20.70;65.30;;;;;;20908837;27;76902;-61
2021/11/05 13:22:08;;;;;;;;;;;22.40;61.70;;;;;;20908000;27;75747;-62
2021/11/05 13:32:11;;;;;;;;;;;22.30;63.90;;;;;;20931880;27;76751;-60
2021/11/05 13:42:19;;;;;;;;;;;23.90;66.70;;;;;;20895977;27;75657;-62
2021/11/05 13:52:21;;;;;;;;;;;24.00;63.70;;;;;;20833482;28;76682;-60
2021/11/05 14:02:24;;;;;;;;;;;21.60;72.90;;;;;;20823978;28;75508;-62
2021/11/05 14:12:26;;;;;;;;;;;19.80;77.10;;;;;;20827917;28;75127;-59
2021/11/05 14:22:39;;;;;;;;;;;23.90;66.90;;;;;;20819293;28;75636;-60
2021/11/05 14:32:41;;;;;;;;;;;23.10;70.20;;;;;;20827777;28;74939;-61
2021/11/05 14:42:43;;;;;;;;;;;26.70;69.80;;;;;;20832344;28;75493;-61
2021/11/05 14:52:46;;;;;;;;;;;25.00;67.50;;;;;;20829079;28;76604;-60
2021/11/05 15:02:48;;;;;;;;;;;20.00;75.60;;;;;;20827763;28;75634;-60
2021/11/05 15:12:50;;;;;;;;;;;17.90;78.00;;;;;;20827317;28;75638;-59
2021/11/05 15:22:54;;;;;;;;;;;16.60;77.80;;;;;;20827202;28;76656;-61
2021/11/05 15:32:56;;;;;;;;;;;16.20;74.90;;;;;;20826638;28;76801;-61
2021/11/05 15:43:02;;;;;;;;;;;15.70;77.00;;;;;;20826508;28;75761;-60
2021/11/05 15:53:05;;;;;;;;;;;15.40;71.50;;;;;;20824808;28;76792;-59
2021/11/05 16:03:07;;;;;;;;;;;14.90;79.30;;;;;;20823234;28;74600;-60
2021/11/05 16:13:10;;;;;;;;;;;14.40;75.20;;;;;;20805385;28;77044;-60
2021/11/05 16:23:12;;;;;;;;;;;14.20;78.50;;;;;;20823215;28;75627;-59
2021/11/05 16:33:13;;;;;;;;;;;13.80;76.90;;;;;;20825586;28;75811;-59
2021/11/05 16:43:15;;;;;;;;;;;13.60;75.10;;;;;;20837181;28;75463;-59
2021/11/05 16:53:17;;;;;;;;;;;13.20;75.40;;;;;;20835007;28;75672;-59
2021/11/05 17:03:18;;;;;;;;;;;13.40;78.30;;;;;;20835435;28;75809;-61
2021/11/05 17:13:21;;;;;;;;;;;13.30;70.40;;;;;;20834659;28;76773;-61
2021/11/05 17:23:23;;;;;;;;;;;13.10;73.70;;;;;;20835343;28;75468;-60
2021/11/05 17:33:25;;;;;;;;;;;12.80;71.90;;;;;;20832023;28;76727;-61
2021/11/05 17:43:28;;;;;;;;;;;12.60;76.30;;;;;;20832493;28;74475;-59
2021/11/05 17:53:30;;;;;;;;;;;12.50;80.80;;;;;;20833162;28;75453;-60
2021/11/05 18:03:36;;;;;;;;;;;12.40;78.20;;;;;;20832731;28;76764;-59
2021/11/05 18:13:38;;;;;;;;;;;12.40;79.80;;;;;;20832536;28;76809;-61
2021/11/05 18:23:39;;;;;;;;;;;12.30;79.10;;;;;;20830364;28;75349;-60
2021/11/05 18:33:41;;;;;;;;;;;12.20;83.80;;;;;;20831438;28;75522;-61
2021/11/05 18:43:43;;;;;;;;;;;11.50;78.20;;;;;;20830283;28;75679;-60
2021/11/05 18:53:45;;;;;;;;;;;11.40;84.10;;;;;;20828995;28;75709;-60
2021/11/05 19:03:47;;;;;;;;;;;11.00;82.90;;;;;;20828597;28;75422;-59
2021/11/05 19:13:48;;;;;;;;;;;10.90;84.00;;;;;;20827857;28;76745;-59
2021/11/05 19:23:50;;;;;;;;;;;10.90;83.30;;;;;;20827088;28;76605;-61
2021/11/05 19:33:52;;;;;;;;;;;10.50;84.30;;;;;;20825612;28;74710;-61
2021/11/05 19:43:54;;;;;;;;;;;10.60;83.30;;;;;;20825433;28;75696;-61
2021/11/05 19:53:56;;;;;;;;;;;10.40;84.40;;;;;;20824320;28;75054;-60
2021/11/05 20:04:00;;;;;;;;;;;10.10;84.50;;;;;;20824502;28;76799;-61
2021/11/05 20:14:02;;;;;;;;;;;10.20;84.80;;;;;;20825533;28;76704;-61
2021/11/05 20:24:04;;;;;;;;;;;10.00;83.10;;;;;;20822998;28;77098;-60
2021/11/05 20:34:09;;;;;;;;;;;9.70;82.60;;;;;;20821318;28;75616;-61
2021/11/05 20:44:11;;;;;;;;;;;9.60;83.30;;;;;;20823865;28;76722;-60
2021/11/05 20:54:14;;;;;;;;;;;9.50;82.20;;;;;;20821250;28;76774;-60
2021/11/05 21:04:15;;;;;;;;;;;9.40;82.60;;;;;;20821818;28;75536;-61
2021/11/05 21:14:17;;;;;;;;;;;9.40;81.80;;;;;;20819570;28;75598;-59
2021/11/05 21:24:19;;;;;;;;;;;9.40;82.10;;;;;;20831385;28;75666;-60
2021/11/05 21:34:21;;;;;;;;;;;9.20;82.60;;;;;;20835193;28;76720;-60
2021/11/05 21:44:22;;;;;;;;;;;9.00;82.60;;;;;;20832539;28;75629;-61
2021/11/05 21:54:24;;;;;;;;;;;8.90;82.00;;;;;;20832629;28;75537;-60
2021/11/05 22:04:26;;;;;;;;;;;8.80;82.50;;;;;;20833332;28;76747;-60
2021/11/05 22:14:28;;;;;;;;;;;8.50;80.80;;;;;;20832360;28;76900;-60
2021/11/05 22:24:29;;;;;;;;;;;8.40;81.70;;;;;;20832054;28;75874;-60
2021/11/05 22:34:31;;;;;;;;;;;8.40;82.60;;;;;;20829606;28;75184;-60
2021/11/05 22:44:33;;;;;;;;;;;8.30;83.00;;;;;;20830887;28;74709;-60
2021/11/05 22:54:34;;;;;;;;;;;8.20;82.90;;;;;;20830486;28;76746;-60
2021/11/05 23:04:36;;;;;;;;;;;8.20;82.30;;;;;;20828557;28;75665;-60
2021/11/05 23:14:38;;;;;;;;;;;8.10;81.70;;;;;;20828026;28;75900;-60
2021/11/05 23:24:40;;;;;;;;;;;8.00;82.10;;;;;;20827370;28;76695;-59
2021/11/05 23:34:41;;;;;;;;;;;7.90;82.00;;;;;;20825885;28;75659;-59
2021/11/05 23:44:43;;;;;;;;;;;7.80;82.70;;;;;;20827175;28;77129;-59
2021/11/05 23:54:44;;;;;;;;;;;7.90;82.90;;;;;;20825612;28;74844;-59
